»·PEaware :: SWA553 KMCO-KBDL

SWA553 :: KMCO-KBDL

FLIGHT INFORMATION

Flight Status: Arrived
Operator:
Southwest Airlines
More flights by this operator :: More flights under this callsign
Pilot: Drew L. (13237)
Aircraft: BOEING 737-300
(B733)
More flights by this aircraft type
Origin: KMCO Orlando Intl
United States
Destination: KBDL Bradley Intl
United States
More flights between these airports :: More routes between these airports
Route: MCOY1 SAV J55 CHS J79 VILLS DPK DPK3
File this flight plan on PilotEdge
Remarks: Sample flight plan
Altitude:
(Current/Filed)
35,000ft
Speed:
(Current/Filed)
550kts
Departed: 09-Jun-17 04:17 PM
Arrived: 09-Jun-17 06:38 PM
Distance/Time
Traveled:
913nm/2:21
Distance/Time
To Go:
Arrived

Flight Plot

Page will automatically refresh every two minutes.

Flight plan parsing failed; only flown route is shown


Map Options




Map Legend


Flown Route
Filed Route
Departure Airport
Arrival Airport
Navaid (VOR, NDB)
Fix

Horizontal Profiles

Position Reports

Time Latitude Longitude Heading Altitude Ground
Speed
09-Jun-17 16:09 28.435448 -81.303814 97 103ft 0kts
09-Jun-17 16:10 28.435496 -81.304235 97 103ft 0kts
09-Jun-17 16:11 28.435517 -81.304419 96 103ft 0kts
09-Jun-17 16:12 28.435517 -81.304419 96 103ft 0kts
09-Jun-17 16:13 28.435518 -81.304385 83 103ft 1kts
09-Jun-17 16:14 28.438624 -81.302541 1 103ft 18kts
09-Jun-17 16:15 28.436714 -81.298084 179 103ft 22kts
09-Jun-17 16:16 28.429133 -81.298003 179 103ft 30kts
09-Jun-17 16:17 28.420103 -81.297910 179 103ft 32kts
09-Jun-17 16:18 28.410912 -81.297833 179 103ft 35kts
09-Jun-17 16:19 28.412473 -81.295618 0 103ft 97kts
09-Jun-17 16:20 28.466144 -81.296216 0 1844ft 228kts
09-Jun-17 16:21 28.527240 -81.298607 2 3911ft 274kts
09-Jun-17 16:22 28.602684 -81.276066 12 7395ft 293kts
09-Jun-17 16:23 28.682004 -81.253453 10 10885ft 306kts
09-Jun-17 16:24 28.775025 -81.227720 11 12595ft 376kts
09-Jun-17 16:25 28.877893 -81.199256 11 15558ft 392kts
09-Jun-17 16:26 28.985564 -81.169432 10 18254ft 408kts
09-Jun-17 16:27 29.097216 -81.138437 10 20780ft 423kts
09-Jun-17 16:28 29.211983 -81.106553 10 23095ft 436kts
09-Jun-17 16:29 29.331348 -81.073269 9 25150ft 450kts
09-Jun-17 16:30 29.453464 -81.039119 9 27258ft 457kts
09-Jun-17 16:31 29.575804 -81.004833 9 29672ft 453kts
09-Jun-17 16:32 29.697252 -80.970714 8 31760ft 451kts
09-Jun-17 16:33 29.818486 -80.936573 7 33606ft 450kts
09-Jun-17 16:34 29.939499 -80.902419 7 35030ft 452kts
09-Jun-17 16:35 30.060566 -80.868131 7 35024ft 446kts
09-Jun-17 16:36 30.179674 -80.834392 7 35036ft 447kts
09-Jun-17 16:37 30.299971 -80.800174 7 35034ft 446kts
09-Jun-17 16:38 30.419765 -80.766022 7 35031ft 446kts
09-Jun-17 16:39 30.540072 -80.731626 7 35032ft 446kts
09-Jun-17 16:40 30.659853 -80.697294 7 35032ft 446kts
09-Jun-17 16:41 30.779839 -80.662818 7 35031ft 446kts
09-Jun-17 16:42 30.899853 -80.628241 7 35030ft 445kts
09-Jun-17 16:43 31.020021 -80.593535 7 35032ft 445kts
09-Jun-17 16:44 31.136644 -80.559785 7 35003ft 445kts
09-Jun-17 16:45 31.256304 -80.525077 7 35034ft 446kts
09-Jun-17 16:46 31.375910 -80.490260 7 35034ft 445kts
09-Jun-17 16:47 31.495282 -80.455424 7 35031ft 445kts
09-Jun-17 16:48 31.615264 -80.420315 7 35032ft 445kts
09-Jun-17 16:49 31.734802 -80.385247 7 35031ft 445kts
09-Jun-17 16:50 31.853984 -80.350187 7 35031ft 445kts
09-Jun-17 16:51 31.973832 -80.314542 7 35031ft 444kts
09-Jun-17 16:52 32.093353 -80.279194 7 35032ft 444kts
09-Jun-17 16:53 32.211924 -80.244081 7 35032ft 445kts
09-Jun-17 16:54 32.331199 -80.208616 7 35031ft 444kts
09-Jun-17 16:55 32.450733 -80.172979 7 35034ft 444kts
09-Jun-17 16:56 32.570103 -80.137294 7 35031ft 444kts
09-Jun-17 16:57 32.689651 -80.101458 7 35032ft 444kts
09-Jun-17 16:58 32.808388 -80.065768 7 35032ft 444kts
09-Jun-17 16:59 32.925211 -80.018959 28 35031ft 458kts
09-Jun-17 17:00 33.031486 -79.938148 26 35034ft 457kts
09-Jun-17 17:01 33.137837 -79.860911 26 35014ft 456kts
09-Jun-17 17:02 33.245365 -79.782546 26 35034ft 457kts
09-Jun-17 17:03 33.353599 -79.703341 26 35031ft 457kts
09-Jun-17 17:04 33.461188 -79.624379 26 35013ft 457kts
09-Jun-17 17:05 33.563305 -79.549170 24 34992ft 429kts
09-Jun-17 17:06 33.665678 -79.473613 24 35039ft 432kts
09-Jun-17 17:07 33.767239 -79.398446 24 35029ft 431kts
09-Jun-17 17:08 33.867792 -79.323618 26 35019ft 432kts
09-Jun-17 17:09 33.969147 -79.246950 25 35033ft 432kts
09-Jun-17 17:10 34.070466 -79.171305 25 35005ft 433kts
09-Jun-17 17:11 34.167367 -79.098938 25 35011ft 429kts
09-Jun-17 17:12 34.269018 -79.022663 25 35009ft 434kts
09-Jun-17 17:13 34.370723 -78.945629 25 35030ft 433kts
09-Jun-17 17:14 34.472333 -78.868930 25 34917ft 434kts
09-Jun-17 17:15 34.557056 -78.804557 25 34832ft 432kts
09-Jun-17 17:16 34.675897 -78.714291 25 34844ft 433kts
09-Jun-17 17:17 34.777910 -78.636584 25 34842ft 433kts
09-Jun-17 17:18 34.879118 -78.559262 25 34967ft 432kts
09-Jun-17 17:19 34.963997 -78.494247 25 35012ft 434kts
09-Jun-17 17:20 35.082631 -78.403097 25 35004ft 434kts
09-Jun-17 17:21 35.180037 -78.328098 26 34995ft 435kts
09-Jun-17 17:22 35.280974 -78.249884 26 35001ft 434kts
09-Jun-17 17:23 35.382275 -78.171338 26 35005ft 434kts
09-Jun-17 17:24 35.466771 -78.104707 26 35004ft 435kts
09-Jun-17 17:25 35.568523 -78.025145 26 35004ft 434kts
09-Jun-17 17:26 35.669955 -77.945823 26 35002ft 435kts
09-Jun-17 17:27 35.771707 -77.865997 26 35005ft 435kts
09-Jun-17 17:28 35.873557 -77.785855 26 35004ft 435kts
09-Jun-17 17:29 35.971358 -77.708660 26 35005ft 436kts
09-Jun-17 17:30 36.071254 -77.616233 30 34979ft 466kts
09-Jun-17 17:31 36.172861 -77.521942 30 35010ft 468kts
09-Jun-17 17:32 36.276581 -77.425318 30 35008ft 469kts
09-Jun-17 17:33 36.378584 -77.329863 31 34976ft 469kts
09-Jun-17 17:34 36.481919 -77.232675 31 35034ft 469kts
09-Jun-17 17:35 36.585356 -77.135296 31 35004ft 469kts
09-Jun-17 17:36 36.688699 -77.037669 31 35005ft 469kts
09-Jun-17 17:37 36.793325 -76.941439 29 35006ft 468kts
09-Jun-17 17:38 36.898411 -76.847029 29 35004ft 468kts
09-Jun-17 17:39 37.003546 -76.751998 30 34980ft 469kts
09-Jun-17 17:40 37.105230 -76.659919 29 34969ft 469kts
09-Jun-17 17:41 37.193162 -76.580383 29 34984ft 469kts
09-Jun-17 17:42 37.298134 -76.484876 29 34978ft 469kts
09-Jun-17 17:43 37.403514 -76.388647 29 34965ft 467kts
09-Jun-17 17:44 37.508440 -76.291912 31 34979ft 471kts
09-Jun-17 17:45 37.613027 -76.195116 30 34978ft 470kts
09-Jun-17 17:46 37.718593 -76.097656 30 35008ft 471kts
09-Jun-17 17:47 37.823428 -76.000509 30 34998ft 471kts
09-Jun-17 17:48 37.928259 -75.903016 30 34976ft 471kts
09-Jun-17 17:49 38.033166 -75.805111 30 34977ft 471kts
09-Jun-17 17:50 38.130961 -75.713610 30 34957ft 472kts
09-Jun-17 17:51 38.236074 -75.614901 30 34978ft 472kts
09-Jun-17 17:52 38.341332 -75.515814 27 34975ft 470kts
09-Jun-17 17:53 38.460835 -75.462694 10 34966ft 457kts
09-Jun-17 17:54 38.580959 -75.413164 11 34950ft 457kts
09-Jun-17 17:55 38.701528 -75.363079 11 34950ft 457kts
09-Jun-17 17:56 38.821274 -75.312908 11 34951ft 457kts
09-Jun-17 17:57 38.942076 -75.262355 11 34951ft 457kts
09-Jun-17 17:58 39.062167 -75.211942 11 34924ft 458kts
09-Jun-17 17:59 39.146105 -75.176640 11 34917ft 458kts
09-Jun-17 18:00 39.257039 -75.129822 11 34924ft 458kts
09-Jun-17 18:01 39.363416 -75.039078 39 34928ft 481kts
09-Jun-17 18:02 39.460751 -74.922509 37 34895ft 479kts
09-Jun-17 18:03 39.559050 -74.806277 37 34897ft 480kts
09-Jun-17 18:04 39.656610 -74.690411 37 34877ft 480kts
09-Jun-17 18:05 39.754287 -74.573940 37 34876ft 479kts
09-Jun-17 18:06 39.852102 -74.456844 37 34907ft 481kts
09-Jun-17 18:07 39.942166 -74.348589 37 34935ft 480kts
09-Jun-17 18:08 40.025405 -74.247901 37 34954ft 481kts
09-Jun-17 18:09 40.107005 -74.148782 37 34936ft 481kts
09-Jun-17 18:10 40.180220 -74.060019 37 34951ft 481kts
09-Jun-17 18:11 40.277512 -73.941303 37 34899ft 482kts
09-Jun-17 18:12 40.373304 -73.823853 37 33177ft 463kts
09-Jun-17 18:13 40.458929 -73.718543 37 31283ft 454kts
09-Jun-17 18:14 40.551759 -73.603896 37 28335ft 460kts
09-Jun-17 18:15 40.644014 -73.489494 37 25436ft 457kts
09-Jun-17 18:16 40.732875 -73.378839 38 23186ft 437kts
09-Jun-17 18:17 40.811588 -73.281266 37 21035ft 422kts
09-Jun-17 18:18 40.897137 -73.181379 36 18741ft 407kts
09-Jun-17 18:19 40.980381 -73.084499 36 16566ft 394kts
09-Jun-17 18:20 41.060451 -72.991007 37 14501ft 381kts
09-Jun-17 18:21 41.119907 -72.920862 36 14028ft 323kts
09-Jun-17 18:22 41.182806 -72.847210 36 12598ft 305kts
09-Jun-17 18:23 41.250352 -72.786983 19 10902ft 290kts
09-Jun-17 18:24 41.324452 -72.750170 14 9944ft 284kts
09-Jun-17 18:25 41.397062 -72.716063 14 9310ft 282kts
09-Jun-17 18:26 41.470269 -72.681793 14 8667ft 280kts
09-Jun-17 18:27 41.543263 -72.647641 14 8021ft 278kts
09-Jun-17 18:28 41.615689 -72.613790 14 7375ft 277kts
09-Jun-17 18:29 41.688153 -72.580453 14 6715ft 276kts
09-Jun-17 18:30 41.760243 -72.547256 13 6018ft 274kts
09-Jun-17 18:31 41.831694 -72.514315 13 5323ft 272kts
09-Jun-17 18:32 41.900632 -72.482250 13 4610ft 253kts
09-Jun-17 18:33 41.962215 -72.452721 13 4359ft 219kts
09-Jun-17 18:34 42.018938 -72.433299 332 3239ft 203kts
09-Jun-17 18:35 42.031856 -72.501624 268 2900ft 190kts
09-Jun-17 18:36 42.026202 -72.570868 234 2003ft 185kts
09-Jun-17 18:37 41.994331 -72.614884 224 1416ft 147kts
09-Jun-17 18:38 41.965824 -72.652188 225 630ft 141kts
09-Jun-17 18:39 41.940079 -72.686020 225 177ft 56kts
09-Jun-17 18:40 41.935348 -72.689589 150 177ft 8kts
09-Jun-17 18:41 41.935046 -72.688145 145 177ft 7kts
09-Jun-17 18:42 41.934762 -72.687859 142 177ft 0kts
09-Jun-17 18:43 41.934762 -72.687860 142 177ft 0kts
09-Jun-17 18:44 41.934762 -72.687860 142 177ft 0kts
09-Jun-17 18:45 41.934762 -72.687860 142 177ft 0kts
09-Jun-17 18:46 41.934762 -72.687860 142 177ft 0kts

Navigation Log

Ident Type
Flight plan parsing failed, navigation log unavailable